| time (UTC) | temp F | wind direction | speed MPH | gust MPH | rain 1hr in | rain 24hr in | rain mn in | humidity % | barometer mb |
| 20260504110523 | 69 | 309 | 6.0 | 13.0 | 0.00 | 0.00 | 0.00 | 55 | 1011.2 |
| 20260504100550 | 70 | 249 | 7.0 | 16.0 | 0.00 | 0.00 | 0.00 | 55 | 1011.2 |
| 20260504081556 | 66 | 240 | 5.0 | 11.0 | 0.00 | 0.00 | 0.00 | 65 | 1010.8 |
| 20260504080615 | 65 | 242 | 5.0 | 9.0 | 0.00 | 0.00 | 0.00 | 68 | 1010.8 |
| 20260504050516 | 0 | 160 | 3.0 | 6.0 | 0.00 | 0.00 | 0.00 | 1009.8 | |
| 20260504045615 | 0 | 113 | 2.0 | 4.0 | 0.00 | 0.00 | 0.00 | 1009.6 | |
| 20260504044607 | 0 | 113 | 2.0 | 4.0 | 0.00 | 0.00 | 0.00 | 1009.5 | |
| 20260504043602 | 0 | 113 | 2.0 | 4.0 | 0.00 | 0.00 | 0.00 | 1009.5 | |
| 20260504042601 | 0 | 113 | 1.0 | 2.0 | 0.00 | 0.00 | 0.00 | 1009.7 | |
| 20260504041553 | 0 | 113 | 2.0 | 6.0 | 0.00 | 0.00 | 0.00 | 1009.7 | |
| 20260504040547 | 0 | 113 | 3.0 | 7.0 | 0.00 | 0.00 | 0.00 | 1009.7 | |
| 20260504035545 | 0 | 113 | 1.0 | 2.0 | 0.00 | 0.00 | 0.00 | 1009.6 | |
| 20260504034537 | 0 | 113 | 1.0 | 4.0 | 0.00 | 0.00 | 0.00 | 1009.5 | |
| 20260504033532 | 0 | 113 | 0.0 | 2.0 | 0.00 | 0.00 | 0.00 | 1009.4 | |
| 20260504032528 | 0 | 113 | 2.0 | 4.0 | 0.00 | 0.00 | 0.00 | 1009.4 | |
| 20260504031523 | 0 | 113 | 2.0 | 4.0 | 0.00 | 0.00 | 0.00 | 1009.2 | |
| 20260504030517 | 0 | 113 | 1.0 | 4.0 | 0.00 | 0.00 | 0.00 | 1009.0 | |
| 20260504025611 | 0 | 113 | 1.0 | 4.0 | 0.00 | 0.00 | 0.00 | 1009.0 | |
| 20260504024605 | 0 | 113 | 2.0 | 4.0 | 0.00 | 0.00 | 0.00 | 1009.0 | |
| 20260504023559 | 0 | 113 | 3.0 | 6.0 | 0.00 | 0.00 | 0.00 | 1009.1 | |
| 20260504022554 | 0 | 113 | 3.0 | 4.0 | 0.00 | 0.00 | 0.00 | 1009.4 | |
| 20260504021549 | 0 | 113 | 4.0 | 9.0 | 0.00 | 0.00 | 0.00 | 1009.2 | |
| 20260504020544 | 0 | 113 | 3.0 | 8.0 | 0.00 | 0.00 | 0.00 | 1009.1 | |
| 20260504015539 | 0 | 113 | 5.0 | 9.0 | 0.00 | 0.00 | 0.00 | 1009.2 | |
| 20260504014535 | 0 | 113 | 4.0 | 9.0 | 0.00 | 0.00 | 0.00 | 1009.0 | |
| 20260504013529 | 0 | 113 | 2.0 | 6.0 | 0.00 | 0.00 | 0.00 | 1008.9 | |
| 20260504012523 | 0 | 113 | 2.0 | 6.0 | 0.00 | 0.00 | 0.00 | 1009.0 | |
| 20260504011518 | 0 | 113 | 3.0 | 6.0 | 0.00 | 0.00 | 0.00 | 1008.8 | |
| 20260504010614 | 0 | 113 | 2.0 | 6.0 | 0.00 | 0.00 | 0.00 | 1009.0 | |
| 20260504005610 | 0 | 113 | 3.0 | 7.0 | 0.00 | 0.00 | 0.00 | 1008.9 | |
| 20260504004605 | 0 | 113 | 3.0 | 6.0 | 0.00 | 0.00 | 0.00 | 1009.0 | |
| 20260504003601 | 0 | 113 | 3.0 | 7.0 | 0.00 | 0.00 | 0.00 | 1009.0 | |
| 20260504002556 | 0 | 113 | 3.0 | 4.0 | 0.00 | 0.00 | 0.00 | 1009.0 | |
| 20260504001551 | 0 | 113 | 3.0 | 8.0 | 0.00 | 0.00 | 0.00 | 1008.9 | |
| 20260504000545 | 0 | 113 | 4.0 | 8.0 | 0.00 | 0.00 | 0.00 | 1008.9 | |
| 20260503235600 | 0 | 113 | 4.0 | 8.0 | 0.00 | 0.00 | 0.00 | 1008.9 | |
| 20260503234534 | 0 | 113 | 6.0 | 11.0 | 0.00 | 0.00 | 0.00 | 1009.0 | |
| 20260503233553 | 0 | 113 | 4.0 | 11.0 | 0.00 | 0.00 | 0.00 | 1009.1 | |
| 20260503232525 | 0 | 113 | 3.0 | 7.0 | 0.00 | 0.00 | 0.00 | 1008.9 | |
| 20260503231523 | 0 | 113 | 3.0 | 4.0 | 0.00 | 0.00 | 0.00 | 1008.8 | |
| 20260503230615 | 0 | 113 | 3.0 | 8.0 | 0.00 | 0.00 | 0.00 | 1008.9 | |
| 20260503225609 | 0 | 113 | 2.0 | 4.0 | 0.00 | 0.00 | 0.00 | 1008.7 | |
| 20260503224603 | 0 | 113 | 2.0 | 4.0 | 0.00 | 0.00 | 0.00 | 1008.5 | |
| 20260503223557 | 0 | 113 | 3.0 | 8.0 | 0.00 | 0.00 | 0.00 | 1008.7 | |
| 20260503222551 | 0 | 113 | 6.0 | 11.0 | 0.00 | 0.00 | 0.00 | 1008.7 | |
| 20260503221546 | 0 | 113 | 3.0 | 7.0 | 0.00 | 0.00 | 0.00 | 1008.7 | |
| 20260503220602 | 0 | 113 | 3.0 | 7.0 | 0.00 | 0.00 | 0.00 | 1008.9 | |
| 20260503215538 | 0 | 113 | 3.0 | 6.0 | 0.00 | 0.00 | 0.00 | 1009.0 | |
| 20260503214532 | 0 | 113 | 3.0 | 7.0 | 0.00 | 0.00 | 0.00 | 1008.9 | |
| 20260503213527 | 0 | 113 | 2.0 | 7.0 | 0.00 | 0.00 | 0.00 | 1008.9 | |
| 20260503212521 | 0 | 113 | 1.0 | 4.0 | 0.00 | 0.00 | 0.00 | 1008.9 | |
| 20260503211516 | 0 | 113 | 1.0 | 2.0 | 0.00 | 0.00 | 0.00 | 1009.0 | |
| 20260503210611 | 0 | 113 | 1.0 | 2.0 | 0.00 | 0.00 | 0.00 | 1008.8 |